Time;durP1;ratioP1;P1;durP2;ratioP2;P2;SDS_P1;SDS_P2;PMS_P1;PMS_P2;Temp;Humidity;BMP_temperature;BMP_pressure;BME280_temperature;BME280_humidity;BME280_pressure;Samples;Min_cycle;Max_cycle;Signal;HPM_P1;HPM_P2
2021/11/06 00:00:59;;;;;;;8.10;3.03;;;;;;;;;;5042621;28;20185;-73
2021/11/06 00:03:24;;;;;;;8.90;3.23;;;;;;;;;;5039616;28;20877;-73
2021/11/06 00:05:49;;;;;;;4.53;2.90;;;;;;;;;;5030372;28;20208;-72
2021/11/06 00:08:15;;;;;;;6.30;3.30;;;;;;;;;;5047150;28;20259;-72
2021/11/06 00:10:40;;;;;;;7.67;3.40;;;;;;;;;;5030248;28;20177;-73
2021/11/06 00:13:05;;;;;;;6.80;3.73;;;;;;;;;;5047282;28;20228;-73
2021/11/06 00:15:30;;;;;;;7.83;3.87;;;;;;;;;;5045667;28;20205;-73
2021/11/06 00:17:56;;;;;;;5.27;3.97;;;;;;;;;;5028863;28;21128;-73
2021/11/06 00:20:21;;;;;;;7.20;4.43;;;;;;;;;;5046972;28;20227;-72
2021/11/06 00:22:46;;;;;;;5.30;3.97;;;;;;;;;;5030851;28;20264;-71
2021/11/06 00:25:12;;;;;;;10.07;4.30;;;;;;;;;;5041850;28;20694;-71
2021/11/06 00:27:38;;;;;;;6.20;4.60;;;;;;;;;;5045643;28;20613;-72
2021/11/06 00:30:04;;;;;;;9.13;4.97;;;;;;;;;;5046626;28;20205;-74
2021/11/06 00:32:29;;;;;;;7.57;5.13;;;;;;;;;;5052755;28;20655;-72
2021/11/06 00:34:54;;;;;;;9.93;4.80;;;;;;;;;;5046753;28;20196;-73
2021/11/06 00:37:20;;;;;;;9.13;5.90;;;;;;;;;;5031852;28;20169;-73
2021/11/06 00:39:45;;;;;;;7.03;4.70;;;;;;;;;;5047391;28;20177;-74
2021/11/06 00:42:10;;;;;;;8.43;5.13;;;;;;;;;;5046021;28;20190;-73
2021/11/06 00:44:36;;;;;;;7.60;5.40;;;;;;;;;;5024412;28;20189;-73
2021/11/06 00:47:01;;;;;;;12.40;5.60;;;;;;;;;;5029195;28;20185;-73
2021/11/06 00:49:26;;;;;;;10.03;5.23;;;;;;;;;;5040799;28;20587;-74
2021/11/06 00:51:52;;;;;;;8.93;5.77;;;;;;;;;;5018680;28;20538;-74
2021/11/06 00:54:17;;;;;;;8.70;4.93;;;;;;;;;;5045041;28;20181;-73
2021/11/06 00:56:42;;;;;;;7.50;5.40;;;;;;;;;;5048008;28;20307;-73
2021/11/06 00:59:08;;;;;;;8.93;5.40;;;;;;;;;;5044662;28;20319;-73
2021/11/06 01:01:34;;;;;;;10.53;6.00;;;;;;;;;;5048942;28;20204;-73
2021/11/06 01:03:59;;;;;;;7.80;5.30;;;;;;;;;;5043755;28;20167;-73
2021/11/06 01:06:24;;;;;;;8.57;6.40;;;;;;;;;;5047084;28;20194;-72
2021/11/06 01:08:49;;;;;;;10.50;7.03;;;;;;;;;;5050133;28;20762;-73
2021/11/06 01:11:14;;;;;;;10.43;6.43;;;;;;;;;;5052526;28;20632;-72
2021/11/06 01:13:40;;;;;;;11.83;6.57;;;;;;;;;;5050842;28;21013;-73
2021/11/06 01:16:05;;;;;;;12.53;6.10;;;;;;;;;;5051894;28;20194;-73
2021/11/06 01:18:30;;;;;;;10.27;6.60;;;;;;;;;;5046752;28;20184;-72
2021/11/06 01:20:55;;;;;;;7.77;5.70;;;;;;;;;;5050702;28;20247;-73
2021/11/06 01:23:21;;;;;;;10.60;6.70;;;;;;;;;;5042208;28;20190;-72
2021/11/06 01:25:46;;;;;;;15.20;7.37;;;;;;;;;;5050030;28;20223;-72
2021/11/06 01:28:11;;;;;;;9.40;6.50;;;;;;;;;;5047268;28;20261;-72
2021/11/06 01:30:37;;;;;;;7.63;6.23;;;;;;;;;;5048715;28;20667;-72
2021/11/06 01:33:03;;;;;;;9.07;6.00;;;;;;;;;;5050740;28;20272;-72
2021/11/06 01:35:28;;;;;;;7.77;6.10;;;;;;;;;;5048880;28;20205;-72
2021/11/06 01:37:53;;;;;;;10.33;6.20;;;;;;;;;;5046995;28;20185;-73
2021/11/06 01:40:20;;;;;;;9.10;7.30;;;;;;;;;;5049445;28;20182;-72
2021/11/06 01:42:45;;;;;;;11.60;6.93;;;;;;;;;;5050800;28;20178;-72
2021/11/06 01:45:15;;;;;;;13.93;7.20;;;;;;;;;;5048795;28;20216;-72
2021/11/06 01:47:40;;;;;;;14.13;7.83;;;;;;;;;;5032528;28;20185;-72
2021/11/06 01:50:06;;;;;;;11.17;6.90;;;;;;;;;;5044132;28;21859;-72
2021/11/06 01:52:31;;;;;;;10.47;6.50;;;;;;;;;;5046447;28;20181;-72
2021/11/06 01:54:57;;;;;;;13.80;7.60;;;;;;;;;;5027250;28;20225;-72
2021/11/06 01:57:22;;;;;;;11.67;7.03;;;;;;;;;;5043946;28;20174;-72
2021/11/06 01:59:48;;;;;;;10.90;6.90;;;;;;;;;;5048707;28;20181;-72
2021/11/06 02:02:14;;;;;;;8.63;6.93;;;;;;;;;;5050403;28;20185;-73
2021/11/06 02:04:40;;;;;;;10.73;6.40;;;;;;;;;;5046310;28;20769;-72
2021/11/06 02:07:05;;;;;;;10.77;6.17;;;;;;;;;;5047781;28;20268;-72
2021/11/06 02:09:30;;;;;;;11.30;6.40;;;;;;;;;;5047633;28;20197;-73
2021/11/06 02:11:56;;;;;;;10.90;7.10;;;;;;;;;;5047146;28;20644;-73
2021/11/06 02:14:22;;;;;;;11.57;6.87;;;;;;;;;;5050766;28;20204;-72
2021/11/06 02:16:47;;;;;;;11.67;7.40;;;;;;;;;;5045261;28;20201;-73
2021/11/06 02:19:12;;;;;;;10.77;6.63;;;;;;;;;;5049959;28;20182;-72
2021/11/06 02:21:37;;;;;;;9.20;7.03;;;;;;;;;;5045448;28;20185;-71
2021/11/06 02:24:03;;;;;;;10.20;6.43;;;;;;;;;;5049214;28;20177;-72
2021/11/06 02:26:29;;;;;;;10.50;7.53;;;;;;;;;;5049057;28;20220;-72
2021/11/06 02:28:56;;;;;;;10.77;7.03;;;;;;;;;;5040632;28;20209;-72
2021/11/06 02:31:21;;;;;;;9.70;7.23;;;;;;;;;;5042692;28;20655;-72
2021/11/06 02:33:47;;;;;;;8.27;6.63;;;;;;;;;;5045679;28;20181;-72
2021/11/06 02:36:13;;;;;;;13.13;7.23;;;;;;;;;;5027362;28;20209;-72
2021/11/06 02:38:38;;;;;;;10.47;6.77;;;;;;;;;;5046630;28;20178;-74
2021/11/06 02:41:03;;;;;;;10.03;7.03;;;;;;;;;;5050023;28;20244;-73
2021/11/06 02:43:28;;;;;;;10.40;7.23;;;;;;;;;;5046126;28;20264;-73
2021/11/06 02:45:54;;;;;;;9.83;7.10;;;;;;;;;;5040646;28;20280;-73
2021/11/06 02:48:20;;;;;;;8.77;7.53;;;;;;;;;;5044717;28;20177;-72
2021/11/06 02:50:45;;;;;;;11.50;7.47;;;;;;;;;;5044918;28;20522;-73
2021/11/06 02:53:10;;;;;;;14.73;8.47;;;;;;;;;;5051385;28;20182;-72
2021/11/06 02:55:36;;;;;;;9.33;7.57;;;;;;;;;;5045339;28;20200;-72
2021/11/06 02:58:01;;;;;;;11.00;6.97;;;;;;;;;;5044532;28;20251;-73
2021/11/06 03:00:27;;;;;;;10.33;6.67;;;;;;;;;;5040950;28;20184;-73
2021/11/06 03:02:53;;;;;;;8.80;6.77;;;;;;;;;;5048945;28;20189;-73
2021/11/06 03:05:18;;;;;;;9.90;6.47;;;;;;;;;;5054030;28;20197;-73
2021/11/06 03:07:43;;;;;;;8.10;6.33;;;;;;;;;;5049079;28;20552;-73
2021/11/06 03:10:10;;;;;;;13.37;7.47;;;;;;;;;;5046271;28;20263;-72
2021/11/06 03:12:36;;;;;;;11.40;7.60;;;;;;;;;;5052037;28;20737;-72
2021/11/06 03:15:01;;;;;;;11.40;7.07;;;;;;;;;;5050515;28;20288;-72
2021/11/06 03:17:27;;;;;;;8.73;7.37;;;;;;;;;;5041399;28;20178;-72
2021/11/06 03:19:52;;;;;;;8.47;6.93;;;;;;;;;;5045007;28;20189;-72
2021/11/06 03:22:17;;;;;;;10.33;7.40;;;;;;;;;;5050112;28;20663;-72
2021/11/06 03:24:42;;;;;;;10.63;7.50;;;;;;;;;;5046300;28;20189;-72
2021/11/06 03:27:08;;;;;;;9.17;6.40;;;;;;;;;;5044119;28;20189;-73
2021/11/06 03:29:33;;;;;;;9.23;6.97;;;;;;;;;;5044962;28;20201;-72
2021/11/06 03:31:59;;;;;;;11.73;8.23;;;;;;;;;;5044189;28;20181;-73
2021/11/06 03:34:25;;;;;;;11.83;7.67;;;;;;;;;;5031902;28;20558;-73
2021/11/06 03:36:51;;;;;;;12.67;7.43;;;;;;;;;;5047499;28;20194;-73
2021/11/06 03:39:16;;;;;;;8.93;7.10;;;;;;;;;;5029022;28;20185;-73
2021/11/06 03:41:41;;;;;;;10.70;7.57;;;;;;;;;;5049315;28;20178;-72
2021/11/06 03:44:06;;;;;;;13.33;7.50;;;;;;;;;;5048032;28;20284;-73
2021/11/06 03:46:32;;;;;;;10.10;7.70;;;;;;;;;;5043887;28;20213;-73
2021/11/06 03:48:58;;;;;;;9.10;7.37;;;;;;;;;;5046360;28;20217;-73
2021/11/06 03:51:23;;;;;;;10.43;8.37;;;;;;;;;;5046585;28;20176;-73
2021/11/06 03:53:48;;;;;;;10.23;8.03;;;;;;;;;;5045588;28;20182;-73
2021/11/06 03:56:13;;;;;;;9.70;8.70;;;;;;;;;;5034979;28;20239;-73
2021/11/06 03:58:39;;;;;;;10.10;7.87;;;;;;;;;;5047703;28;20193;-73
2021/11/06 04:01:04;;;;;;;11.00;8.57;;;;;;;;;;5046524;28;20213;-73
2021/11/06 04:03:29;;;;;;;9.10;8.10;;;;;;;;;;5047786;28;20199;-73
2021/11/06 04:05:55;;;;;;;12.10;9.07;;;;;;;;;;5028699;28;20256;-73
2021/11/06 04:08:20;;;;;;;11.93;9.23;;;;;;;;;;5047527;28;20174;-73
2021/11/06 04:10:45;;;;;;;12.57;8.47;;;;;;;;;;5030454;28;20180;-73
2021/11/06 04:13:11;;;;;;;13.30;9.20;;;;;;;;;;5048181;28;20235;-73
2021/11/06 04:15:36;;;;;;;11.43;8.83;;;;;;;;;;5047376;28;20283;-73
2021/11/06 04:18:01;;;;;;;11.57;9.17;;;;;;;;;;5039695;28;20174;-73
2021/11/06 04:20:27;;;;;;;11.87;9.27;;;;;;;;;;5044883;28;20185;-73
2021/11/06 04:22:52;;;;;;;14.97;10.87;;;;;;;;;;5040111;28;20186;-73
2021/11/06 04:25:18;;;;;;;14.63;10.60;;;;;;;;;;5040572;28;20300;-73
2021/11/06 04:27:43;;;;;;;12.40;10.27;;;;;;;;;;5043525;28;20192;-73
2021/11/06 04:30:08;;;;;;;13.83;10.63;;;;;;;;;;5046621;28;20853;-72
2021/11/06 04:32:33;;;;;;;15.83;11.77;;;;;;;;;;5044216;28;20264;-72
2021/11/06 04:34:59;;;;;;;13.90;10.10;;;;;;;;;;5041946;28;20283;-72
2021/11/06 04:37:24;;;;;;;17.83;11.87;;;;;;;;;;5047318;28;20227;-73
2021/11/06 04:39:49;;;;;;;17.33;11.50;;;;;;;;;;5026949;28;20563;-72
2021/11/06 04:42:14;;;;;;;21.07;12.13;;;;;;;;;;5054233;28;20631;-72
2021/11/06 04:44:39;;;;;;;17.03;12.03;;;;;;;;;;5046798;28;20647;-72
2021/11/06 04:47:05;;;;;;;16.77;13.60;;;;;;;;;;5052838;28;20185;-72
2021/11/06 04:49:30;;;;;;;21.73;13.93;;;;;;;;;;5051754;28;20686;-72
2021/11/06 04:51:55;;;;;;;25.10;13.43;;;;;;;;;;5048342;28;20522;-72
2021/11/06 04:54:20;;;;;;;19.20;12.50;;;;;;;;;;5044431;28;20201;-72
2021/11/06 04:56:47;;;;;;;20.23;13.60;;;;;;;;;;5029447;28;20216;-72
2021/11/06 04:59:12;;;;;;;18.80;13.50;;;;;;;;;;5032912;28;20173;-72
2021/11/06 05:01:37;;;;;;;24.90;13.27;;;;;;;;;;5029085;28;20228;-72
2021/11/06 05:04:02;;;;;;;18.47;13.00;;;;;;;;;;5049066;28;20570;-72
2021/11/06 05:06:30;;;;;;;22.13;13.17;;;;;;;;;;5046508;28;20347;-72
2021/11/06 05:08:55;;;;;;;21.50;14.03;;;;;;;;;;5045120;28;20201;-72
2021/11/06 05:11:20;;;;;;;23.63;15.37;;;;;;;;;;5035491;28;20227;-72
2021/11/06 05:13:46;;;;;;;20.50;14.13;;;;;;;;;;5051961;28;20562;-72
2021/11/06 05:16:11;;;;;;;21.37;14.37;;;;;;;;;;5047917;28;20273;-72
2021/11/06 05:18:36;;;;;;;26.10;15.10;;;;;;;;;;5051448;28;20201;-72
2021/11/06 05:21:01;;;;;;;25.73;15.20;;;;;;;;;;5028073;28;20268;-74
2021/11/06 05:23:26;;;;;;;22.90;13.60;;;;;;;;;;5049398;28;20642;-73
2021/11/06 05:25:52;;;;;;;30.87;15.77;;;;;;;;;;5052519;28;20205;-72
2021/11/06 05:28:17;;;;;;;27.70;16.17;;;;;;;;;;5049954;28;20570;-72
2021/11/06 05:30:43;;;;;;;25.13;15.03;;;;;;;;;;5049693;28;20336;-73
2021/11/06 05:33:08;;;;;;;22.60;16.13;;;;;;;;;;5052173;28;20178;-73
2021/11/06 05:35:33;;;;;;;36.70;18.30;;;;;;;;;;5053907;28;20197;-73
2021/11/06 05:37:59;;;;;;;27.37;16.00;;;;;;;;;;5055127;28;20184;-73
2021/11/06 05:40:24;;;;;;;28.83;16.03;;;;;;;;;;5053457;28;20181;-72
2021/11/06 05:42:49;;;;;;;26.13;16.30;;;;;;;;;;5056950;28;20188;-72
2021/11/06 05:45:15;;;;;;;25.90;17.30;;;;;;;;;;5051860;28;20757;-73
2021/11/06 05:47:40;;;;;;;27.70;16.60;;;;;;;;;;5055290;28;20204;-72
2021/11/06 05:50:06;;;;;;;23.83;15.37;;;;;;;;;;5051602;28;20257;-73
2021/11/06 05:52:31;;;;;;;25.17;16.37;;;;;;;;;;5033495;28;21224;-72
2021/11/06 05:54:56;;;;;;;26.27;15.27;;;;;;;;;;5049090;28;20638;-73
2021/11/06 05:57:21;;;;;;;24.67;15.67;;;;;;;;;;5051096;28;20623;-73
2021/11/06 05:59:46;;;;;;;24.97;15.60;;;;;;;;;;5050602;28;20177;-71
2021/11/06 06:02:12;;;;;;;23.23;16.67;;;;;;;;;;5050423;28;20189;-73
2021/11/06 06:04:37;;;;;;;26.03;17.33;;;;;;;;;;5051120;28;20260;-74
2021/11/06 06:07:03;;;;;;;21.97;15.83;;;;;;;;;;5051917;28;20177;-72
2021/11/06 06:09:28;;;;;;;22.70;16.33;;;;;;;;;;5051514;28;20220;-73
2021/11/06 06:11:53;;;;;;;23.70;16.00;;;;;;;;;;5052091;28;20227;-73
2021/11/06 06:14:19;;;;;;;26.50;17.03;;;;;;;;;;5049524;28;20193;-73
2021/11/06 06:16:44;;;;;;;23.23;15.63;;;;;;;;;;5028304;28;20217;-72
2021/11/06 06:19:09;;;;;;;25.07;15.83;;;;;;;;;;5043701;28;20205;-72
2021/11/06 06:21:34;;;;;;;26.47;15.47;;;;;;;;;;5046097;28;20176;-73
2021/11/06 06:23:59;;;;;;;19.77;15.40;;;;;;;;;;5048786;28;20190;-72
2021/11/06 06:26:24;;;;;;;25.03;15.67;;;;;;;;;;5051258;28;20468;-74
2021/11/06 06:28:50;;;;;;;23.73;16.30;;;;;;;;;;5027979;28;20852;-73
2021/11/06 06:31:15;;;;;;;28.00;16.50;;;;;;;;;;5050386;28;20272;-73
2021/11/06 06:33:40;;;;;;;26.70;16.23;;;;;;;;;;5050335;28;20166;-73
2021/11/06 06:36:05;;;;;;;28.40;15.83;;;;;;;;;;5048320;28;20224;-74
2021/11/06 06:38:33;;;;;;;26.57;17.20;;;;;;;;;;5047383;28;20174;-72
2021/11/06 06:40:58;;;;;;;32.37;17.47;;;;;;;;;;5051274;28;20184;-72
2021/11/06 06:43:23;;;;;;;25.97;17.07;;;;;;;;;;5052529;28;20177;-72
2021/11/06 06:45:48;;;;;;;26.67;14.87;;;;;;;;;;5040092;28;20197;-73
2021/11/06 06:48:13;;;;;;;25.60;16.60;;;;;;;;;;5047465;28;20643;-73
2021/11/06 06:50:39;;;;;;;32.67;17.43;;;;;;;;;;5049035;28;20198;-73
2021/11/06 06:53:04;;;;;;;25.87;16.67;;;;;;;;;;5048156;28;20650;-72
2021/11/06 06:55:29;;;;;;;29.30;16.97;;;;;;;;;;5044644;28;20270;-72
2021/11/06 06:57:54;;;;;;;35.23;18.17;;;;;;;;;;5049506;28;20174;-73
2021/11/06 07:00:19;;;;;;;30.13;17.53;;;;;;;;;;5048631;28;20193;-72
2021/11/06 07:02:44;;;;;;;27.63;17.30;;;;;;;;;;5051185;28;20173;-73
2021/11/06 07:05:10;;;;;;;30.13;18.67;;;;;;;;;;5052627;28;20665;-75
2021/11/06 07:07:36;;;;;;;32.37;17.77;;;;;;;;;;5047328;28;20178;-72
2021/11/06 07:10:01;;;;;;;26.43;16.43;;;;;;;;;;5051002;28;20208;-72
2021/11/06 07:12:29;;;;;;;31.03;17.53;;;;;;;;;;5051414;28;20837;-72
2021/11/06 07:14:55;;;;;;;34.20;17.47;;;;;;;;;;5050592;28;20204;-73
2021/11/06 07:17:20;;;;;;;27.37;16.13;;;;;;;;;;5028764;28;20181;-75
2021/11/06 07:19:45;;;;;;;28.40;16.57;;;;;;;;;;5045560;28;20280;-72
2021/11/06 07:22:10;;;;;;;36.47;19.67;;;;;;;;;;5051513;28;20196;-72
2021/11/06 07:24:36;;;;;;;31.43;16.70;;;;;;;;;;5047656;28;20678;-74
2021/11/06 07:27:02;;;;;;;31.20;17.33;;;;;;;;;;5046506;28;20194;-73
2021/11/06 07:29:27;;;;;;;34.47;18.80;;;;;;;;;;5050574;28;20247;-73
2021/11/06 07:31:52;;;;;;;34.03;16.90;;;;;;;;;;5051062;28;20653;-73
2021/11/06 07:34:18;;;;;;;39.43;18.00;;;;;;;;;;5051717;28;20166;-73
2021/11/06 07:36:43;;;;;;;29.13;16.60;;;;;;;;;;5050519;28;20732;-71
2021/11/06 07:39:08;;;;;;;26.47;16.57;;;;;;;;;;5051351;28;20205;-73
2021/11/06 07:41:33;;;;;;;32.13;17.07;;;;;;;;;;5046473;28;20169;-73
2021/11/06 07:43:58;;;;;;;26.93;16.50;;;;;;;;;;5047950;28;20551;-72
2021/11/06 07:46:24;;;;;;;31.07;16.47;;;;;;;;;;5049987;28;20670;-73
2021/11/06 07:48:49;;;;;;;28.97;16.57;;;;;;;;;;5045057;28;20287;-73
2021/11/06 07:51:15;;;;;;;30.23;15.83;;;;;;;;;;5033334;28;20184;-73
2021/11/06 07:53:41;;;;;;;26.70;15.80;;;;;;;;;;5051526;28;20598;-72
2021/11/06 07:56:06;;;;;;;24.63;15.40;;;;;;;;;;5050871;28;20340;-72
2021/11/06 07:58:31;;;;;;;26.17;15.20;;;;;;;;;;5051257;28;20172;-72
2021/11/06 08:00:57;;;;;;;32.47;16.07;;;;;;;;;;5051029;28;20257;-74
2021/11/06 08:03:23;;;;;;;28.77;16.30;;;;;;;;;;5043213;28;20200;-72
2021/11/06 08:05:48;;;;;;;23.77;15.43;;;;;;;;;;5042905;28;20683;-73
2021/11/06 08:08:13;;;;;;;27.43;15.07;;;;;;;;;;5033424;28;20226;-73
2021/11/06 08:10:38;;;;;;;26.97;14.83;;;;;;;;;;5053026;28;20674;-71
2021/11/06 08:13:04;;;;;;;24.17;14.47;;;;;;;;;;5052067;28;20173;-72
2021/11/06 08:15:31;;;;;;;27.60;14.83;;;;;;;;;;5049398;28;20200;-72
2021/11/06 08:17:56;;;;;;;28.30;13.43;;;;;;;;;;5051322;28;20177;-72
2021/11/06 08:20:22;;;;;;;27.43;15.33;;;;;;;;;;5050407;28;20177;-72
2021/11/06 08:22:48;;;;;;;28.57;14.77;;;;;;;;;;5032791;28;20232;-74
2021/11/06 08:25:16;;;;;;;27.00;14.83;;;;;;;;;;5048747;28;20213;-72
2021/11/06 08:27:42;;;;;;;28.53;14.93;;;;;;;;;;5046236;28;20178;-73
2021/11/06 08:30:08;;;;;;;24.87;12.37;;;;;;;;;;5047799;28;20201;-74
2021/11/06 08:32:33;;;;;;;25.60;13.77;;;;;;;;;;5050272;28;20165;-72
2021/11/06 08:34:58;;;;;;;25.17;13.43;;;;;;;;;;5048972;28;20229;-72
2021/11/06 08:37:23;;;;;;;29.17;13.93;;;;;;;;;;5044035;28;20627;-72
2021/11/06 08:39:48;;;;;;;29.13;15.63;;;;;;;;;;5048525;28;20177;-72
2021/11/06 08:42:14;;;;;;;25.67;13.07;;;;;;;;;;5045193;28;20269;-73
2021/11/06 08:44:39;;;;;;;22.87;13.03;;;;;;;;;;5050060;28;20170;-73
2021/11/06 08:47:04;;;;;;;26.50;14.67;;;;;;;;;;5049660;28;20531;-73
2021/11/06 08:49:30;;;;;;;24.37;13.17;;;;;;;;;;5050677;28;20233;-73
2021/11/06 08:51:57;;;;;;;25.47;13.70;;;;;;;;;;5045414;28;20176;-73
2021/11/06 08:54:23;;;;;;;22.57;11.97;;;;;;;;;;5046950;28;20182;-72
2021/11/06 08:56:49;;;;;;;19.87;12.40;;;;;;;;;;5032924;28;20201;-72
2021/11/06 08:59:14;;;;;;;21.93;11.80;;;;;;;;;;5047841;28;20243;-73
2021/11/06 09:01:40;;;;;;;24.07;12.00;;;;;;;;;;5047681;28;20210;-73
2021/11/06 09:04:05;;;;;;;16.13;11.13;;;;;;;;;;5030625;28;20181;-74
2021/11/06 09:06:33;;;;;;;22.10;10.40;;;;;;;;;;5033368;28;20279;-73
2021/11/06 09:08:59;;;;;;;13.63;9.70;;;;;;;;;;5050172;28;20288;-73
2021/11/06 09:11:24;;;;;;;13.63;9.07;;;;;;;;;;5054675;28;20517;-73
2021/11/06 09:13:53;;;;;;;15.00;8.70;;;;;;;;;;5048712;28;20169;-72
2021/11/06 09:16:19;;;;;;;18.20;9.30;;;;;;;;;;5048445;28;20205;-73
2021/11/06 09:18:44;;;;;;;15.97;9.30;;;;;;;;;;5043979;28;20183;-73
2021/11/06 09:21:10;;;;;;;15.27;9.77;;;;;;;;;;5049015;28;20182;-73
2021/11/06 09:23:36;;;;;;;14.60;8.00;;;;;;;;;;5032019;28;20178;-73
2021/11/06 09:26:01;;;;;;;15.20;8.53;;;;;;;;;;5031508;28;20215;-74
2021/11/06 09:28:27;;;;;;;15.30;8.13;;;;;;;;;;5048811;28;20174;-73
2021/11/06 09:30:53;;;;;;;13.93;8.40;;;;;;;;;;5053686;28;20197;-74
2021/11/06 09:33:19;;;;;;;15.60;8.37;;;;;;;;;;5035034;28;20174;-72
2021/11/06 09:35:44;;;;;;;16.53;8.10;;;;;;;;;;5052360;28;20621;-73
2021/11/06 09:38:09;;;;;;;17.20;8.43;;;;;;;;;;5053983;28;20518;-73
2021/11/06 09:40:35;;;;;;;16.07;8.17;;;;;;;;;;5034848;28;20212;-72
2021/11/06 09:43:00;;;;;;;15.93;8.53;;;;;;;;;;5052734;28;20537;-74
2021/11/06 09:45:25;;;;;;;17.33;8.63;;;;;;;;;;5051604;28;20201;-73
2021/11/06 09:47:51;;;;;;;15.03;8.83;;;;;;;;;;5050838;28;20174;-73
2021/11/06 09:50:17;;;;;;;17.70;9.17;;;;;;;;;;5050920;28;20647;-74
2021/11/06 09:52:43;;;;;;;16.73;7.77;;;;;;;;;;5048645;28;20247;-73
2021/11/06 09:55:09;;;;;;;13.33;8.43;;;;;;;;;;5052022;28;20201;-74
2021/11/06 09:57:34;;;;;;;12.03;8.73;;;;;;;;;;5053417;28;20173;-73
2021/11/06 10:00:00;;;;;;;14.57;7.77;;;;;;;;;;5052268;28;20174;-73
2021/11/06 10:02:25;;;;;;;16.73;9.47;;;;;;;;;;5052287;28;20656;-74
2021/11/06 10:04:50;;;;;;;17.07;9.93;;;;;;;;;;5048044;28;20197;-73
2021/11/06 10:07:17;;;;;;;18.80;9.27;;;;;;;;;;5053917;28;20185;-73
2021/11/06 10:09:53;;;;;;;15.50;8.70;;;;;;;;;;5056162;28;20733;-73
2021/11/06 10:12:18;;;;;;;17.00;9.87;;;;;;;;;;5056862;28;20175;-74
2021/11/06 10:14:45;;;;;;;15.47;8.90;;;;;;;;;;5053777;28;20177;-73
2021/11/06 10:17:10;;;;;;;16.47;8.87;;;;;;;;;;5051177;28;20178;-73
2021/11/06 10:19:49;;;;;;;13.03;8.03;;;;;;;;;;5052477;28;20185;-73
2021/11/06 10:22:16;;;;;;;17.00;9.15;;;;;;;;;;5035483;28;20557;-73
2021/11/06 10:24:43;;;;;;;17.40;8.43;;;;;;;;;;5054038;28;20177;-73
2021/11/06 10:27:29;;;;;;;14.30;8.27;;;;;;;;;;5041250;28;20186;-74
2021/11/06 10:30:13;;;;;;;13.90;8.37;;;;;;;;;;5051600;28;20255;-73
2021/11/06 10:32:39;;;;;;;15.13;8.83;;;;;;;;;;5052654;28;20174;-73
2021/11/06 10:35:21;;;;;;;13.83;7.70;;;;;;;;;;5047353;28;20205;-73
2021/11/06 10:37:56;;;;;;;16.33;7.80;;;;;;;;;;5046882;28;20173;-73
2021/11/06 10:40:21;;;;;;;13.13;7.90;;;;;;;;;;5051606;28;20221;-73
2021/11/06 10:42:50;;;;;;;13.13;8.10;;;;;;;;;;5051944;28;20231;-72
2021/11/06 10:45:16;;;;;;;14.60;7.83;;;;;;;;;;5055423;28;20201;-74
2021/11/06 10:47:49;;;;;;;14.60;7.77;;;;;;;;;;5050322;28;20174;-73
2021/11/06 10:50:15;;;;;;;12.57;7.57;;;;;;;;;;5050629;28;20205;-73
2021/11/06 10:52:45;;;;;;;11.83;7.03;;;;;;;;;;5047870;28;20591;-73
2021/11/06 10:55:10;;;;;;;15.50;8.07;;;;;;;;;;5050797;28;20206;-73
2021/11/06 10:57:36;;;;;;;15.40;8.20;;;;;;;;;;5051394;28;20550;-73
2021/11/06 11:00:10;;;;;;;15.97;8.63;;;;;;;;;;5046209;28;20198;-73
2021/11/06 11:02:35;;;;;;;17.43;8.27;;;;;;;;;;5052229;28;20218;-73
2021/11/06 11:05:01;;;;;;;16.67;8.87;;;;;;;;;;5046201;28;20210;-73
2021/11/06 11:07:26;;;;;;;17.93;8.10;;;;;;;;;;5050269;28;20235;-73
2021/11/06 11:09:51;;;;;;;14.50;7.73;;;;;;;;;;5051079;28;20236;-73
2021/11/06 11:12:17;;;;;;;17.27;9.13;;;;;;;;;;5052051;28;20293;-74
2021/11/06 11:14:49;;;;;;;13.80;7.50;;;;;;;;;;5047765;28;20182;-74
2021/11/06 11:17:14;;;;;;;14.20;7.38;;;;;;;;;;5050738;28;20185;-73
2021/11/06 11:19:41;;;;;;;11.75;6.20;;;;;;;;;;5048636;28;20677;-73
2021/11/06 11:22:07;;;;;;;13.27;7.38;;;;;;;;;;5044765;28;20184;-73
2021/11/06 11:24:32;;;;;;;12.15;7.25;;;;;;;;;;5049507;28;20174;-72
2021/11/06 11:26:58;;;;;;;15.15;7.28;;;;;;;;;;5045112;28;20312;-74
2021/11/06 11:29:36;;;;;;;13.43;7.30;;;;;;;;;;5046828;28;20706;-74
2021/11/06 11:32:02;;;;;;;12.35;6.97;;;;;;;;;;5048146;28;20197;-74
2021/11/06 11:34:27;;;;;;;12.63;7.43;;;;;;;;;;5032924;28;20256;-74
2021/11/06 11:36:53;;;;;;;10.98;6.43;;;;;;;;;;5047287;28;20910;-74
2021/11/06 11:39:20;;;;;;;11.35;6.10;;;;;;;;;;5050288;28;20882;-73
2021/11/06 11:41:48;;;;;;;10.73;5.90;;;;;;;;;;5033163;28;20177;-74
2021/11/06 11:44:32;;;;;;;10.80;6.07;;;;;;;;;;5046786;28;20651;-74
2021/11/06 11:47:09;;;;;;;10.80;5.40;;;;;;;;;;5031398;28;20220;-73
2021/11/06 11:49:37;;;;;;;9.48;5.88;;;;;;;;;;5031245;28;20228;-73
2021/11/06 11:52:21;;;;;;;11.88;5.80;;;;;;;;;;5051517;28;20227;-73
2021/11/06 11:54:58;;;;;;;9.13;5.15;;;;;;;;;;5045207;28;20544;-73
2021/11/06 11:57:24;;;;;;;11.20;6.03;;;;;;;;;;5050242;28;20188;-72
2021/11/06 11:59:49;;;;;;;10.93;6.35;;;;;;;;;;5050393;28;20173;-73
2021/11/06 12:02:18;;;;;;;10.95;5.72;;;;;;;;;;5032453;28;20178;-73
2021/11/06 12:04:44;;;;;;;8.68;5.55;;;;;;;;;;5050470;28;20178;-73
2021/11/06 12:07:16;;;;;;;10.32;5.85;;;;;;;;;;5050085;28;20184;-73
2021/11/06 12:09:41;;;;;;;8.40;6.35;;;;;;;;;;5049580;28;20230;-73
2021/11/06 12:12:07;;;;;;;11.48;6.20;;;;;;;;;;5042492;28;20202;-73
2021/11/06 12:14:35;;;;;;;9.07;5.53;;;;;;;;;;5031178;28;20174;-73
2021/11/06 12:17:02;;;;;;;9.90;6.00;;;;;;;;;;5048852;28;20204;-73
2021/11/06 12:19:41;;;;;;;9.77;5.90;;;;;;;;;;5050578;28;20173;-73
2021/11/06 12:22:08;;;;;;;11.45;6.35;;;;;;;;;;5048875;28;20295;-73
2021/11/06 12:24:33;;;;;;;12.93;6.28;;;;;;;;;;5030612;28;20669;-73
2021/11/06 12:27:00;;;;;;;10.80;6.75;;;;;;;;;;5048592;28;20209;-73
2021/11/06 12:29:34;;;;;;;11.68;6.70;;;;;;;;;;5049846;28;20337;-73
2021/11/06 12:32:10;;;;;;;10.18;7.00;;;;;;;;;;5048481;28;20192;-73
2021/11/06 12:34:45;;;;;;;11.00;6.45;;;;;;;;;;5049294;28;20177;-74
2021/11/06 12:37:12;;;;;;;12.27;6.78;;;;;;;;;;5047486;28;20602;-74
2021/11/06 12:39:53;;;;;;;15.13;7.28;;;;;;;;;;5048801;28;20177;-74
2021/11/06 12:42:31;;;;;;;12.32;7.25;;;;;;;;;;5050286;28;20176;-74
2021/11/06 12:44:59;;;;;;;9.88;5.80;;;;;;;;;;5028604;28;20637;-73
2021/11/06 12:47:25;;;;;;;11.60;6.22;;;;;;;;;;5023139;28;20269;-74
2021/11/06 12:49:51;;;;;;;13.77;6.78;;;;;;;;;;5046357;28;20193;-72
2021/11/06 12:52:18;;;;;;;14.18;7.25;;;;;;;;;;5049877;28;20552;-73
2021/11/06 12:54:44;;;;;;;13.02;7.35;;;;;;;;;;5049394;28;20210;-72
2021/11/06 12:57:09;;;;;;;13.32;6.82;;;;;;;;;;5050797;28;20197;-73
2021/11/06 12:59:43;;;;;;;14.43;6.65;;;;;;;;;;5046302;28;20698;-73
2021/11/06 13:02:08;;;;;;;16.63;8.13;;;;;;;;;;5053441;28;20184;-73
2021/11/06 13:04:35;;;;;;;11.98;6.43;;;;;;;;;;5052540;28;20178;-73
2021/11/06 13:07:02;;;;;;;17.80;8.38;;;;;;;;;;5036176;28;20548;-73
2021/11/06 13:09:28;;;;;;;12.93;7.30;;;;;;;;;;5051975;28;20237;-73
2021/11/06 13:11:59;;;;;;;10.55;6.85;;;;;;;;;;5055134;28;20170;-73
2021/11/06 13:14:28;;;;;;;8.57;5.57;;;;;;;;;;5049412;28;20182;-73
2021/11/06 13:17:01;;;;;;;14.02;6.95;;;;;;;;;;5056542;28;20267;-73
2021/11/06 13:19:35;;;;;;;11.02;7.00;;;;;;;;;;5050038;28;20327;-74
2021/11/06 13:22:00;;;;;;;10.53;6.60;;;;;;;;;;5053570;28;20227;-73
2021/11/06 13:24:45;;;;;;;11.93;6.15;;;;;;;;;;5049743;28;20177;-74
2021/11/06 13:27:10;;;;;;;9.47;5.60;;;;;;;;;;5051957;28;20189;-74
2021/11/06 13:29:35;;;;;;;8.77;5.30;;;;;;;;;;5053103;28;20247;-74
2021/11/06 13:32:04;;;;;;;13.53;6.03;;;;;;;;;;5053486;28;20543;-73
2021/11/06 13:34:38;;;;;;;10.65;5.72;;;;;;;;;;5047241;28;20169;-74
2021/11/06 13:37:13;;;;;;;10.52;6.85;;;;;;;;;;5054182;28;20186;-73
2021/11/06 13:39:38;;;;;;;11.20;5.97;;;;;;;;;;5046231;28;20177;-74
2021/11/06 13:42:03;;;;;;;9.75;5.90;;;;;;;;;;5050268;28;20272;-73
2021/11/06 13:44:29;;;;;;;16.20;8.82;;;;;;;;;;5053211;28;20232;-73
2021/11/06 13:46:56;;;;;;;14.70;7.70;;;;;;;;;;5034978;28;20190;-73
2021/11/06 13:49:34;;;;;;;11.17;6.60;;;;;;;;;;5052692;28;20202;-73
2021/11/06 13:52:04;;;;;;;11.70;6.77;;;;;;;;;;5053710;28;20519;-73
2021/11/06 13:54:31;;;;;;;9.65;6.40;;;;;;;;;;5048692;28;20201;-73
2021/11/06 13:56:59;;;;;;;8.82;5.45;;;;;;;;;;5053667;28;20186;-73
2021/11/06 13:59:29;;;;;;;9.87;5.63;;;;;;;;;;5052899;28;20170;-73
2021/11/06 14:01:55;;;;;;;12.52;5.93;;;;;;;;;;5035606;28;20185;-74
2021/11/06 14:04:20;;;;;;;11.00;5.60;;;;;;;;;;5052686;28;20718;-73
2021/11/06 14:06:47;;;;;;;9.60;6.03;;;;;;;;;;5050909;28;20212;-72
2021/11/06 14:09:12;;;;;;;10.25;5.53;;;;;;;;;;5052160;28;20621;-73
2021/11/06 14:11:52;;;;;;;9.70;5.43;;;;;;;;;;5051811;28;20176;-73
2021/11/06 14:14:17;;;;;;;8.90;5.20;;;;;;;;;;5046183;28;20271;-73
2021/11/06 14:16:43;;;;;;;8.87;5.40;;;;;;;;;;5052731;28;20197;-73
2021/11/06 14:19:09;;;;;;;10.23;6.77;;;;;;;;;;5050851;28;20192;-73
2021/11/06 14:21:39;;;;;;;9.25;5.68;;;;;;;;;;5049986;28;20257;-74
2021/11/06 14:24:08;;;;;;;9.80;6.23;;;;;;;;;;5034591;28;20264;-71